createdAt,value
2023-03-12T00:00:41.606Z,-0.19
2023-03-12T00:02:43.035Z,-0.18
2023-03-12T00:04:44.577Z,-0.20
2023-03-12T00:06:45.981Z,-0.21
2023-03-12T00:08:48.470Z,-0.20
2023-03-12T00:10:49.904Z,-0.21
2023-03-12T00:12:51.436Z,-0.19
2023-03-12T00:14:52.923Z,-0.20
2023-03-12T00:16:55.718Z,-0.22
2023-03-12T00:18:57.238Z,-0.19
2023-03-12T00:20:58.721Z,-0.22
2023-03-12T00:23:00.436Z,-0.21
2023-03-12T00:25:02.327Z,-0.21
2023-03-12T00:27:03.827Z,-0.24
2023-03-12T00:29:05.504Z,-0.26
2023-03-12T00:31:21.818Z,-0.28
2023-03-12T00:33:23.257Z,-0.26
2023-03-12T00:35:25.726Z,-0.28
2023-03-12T00:37:27.540Z,-0.30
2023-03-12T00:39:28.975Z,-0.30
2023-03-12T00:41:30.545Z,-0.33
2023-03-12T00:43:31.970Z,-0.35
2023-03-12T00:45:33.484Z,-0.35
2023-03-12T00:47:34.931Z,-0.37
2023-03-12T00:49:37.009Z,-0.36
2023-03-12T00:51:38.674Z,-0.36
2023-03-12T00:53:40.133Z,-0.33
2023-03-12T00:55:41.616Z,-0.30
2023-03-12T00:57:43.082Z,-0.29
2023-03-12T00:59:44.693Z,-0.28
2023-03-12T01:01:46.290Z,-0.27
2023-03-12T01:03:48.127Z,-0.27
2023-03-12T01:05:53.998Z,-0.28
2023-03-12T01:07:55.418Z,-0.28
2023-03-12T01:09:56.840Z,-0.28
2023-03-12T01:11:58.291Z,-0.27
2023-03-12T01:14:00.705Z,-0.26
2023-03-12T01:16:02.265Z,-0.22
2023-03-12T01:18:03.908Z,-0.23
2023-03-12T01:20:06.056Z,-0.22
2023-03-12T01:22:07.512Z,-0.22
2023-03-12T01:24:09.113Z,-0.21
2023-03-12T01:26:10.586Z,-0.22
2023-03-12T01:28:11.993Z,-0.23
2023-03-12T01:30:13.809Z,-0.20
2023-03-12T01:32:17.005Z,-0.21
2023-03-12T01:34:18.612Z,-0.19
2023-03-12T01:36:25.848Z,-0.22
2023-03-12T01:38:27.242Z,-0.23
2023-03-12T01:40:29.254Z,-0.21
2023-03-12T01:42:30.738Z,-0.24
2023-03-12T01:44:59.252Z,-0.20
2023-03-12T01:47:00.676Z,-0.21
2023-03-12T01:49:16.232Z,-0.22
2023-03-12T01:51:19.104Z,-0.20
2023-03-12T01:53:20.685Z,-0.18
2023-03-12T01:55:22.111Z,-0.17
2023-03-12T01:57:30.394Z,-0.16
2023-03-12T01:59:37.623Z,-0.14
2023-03-12T02:01:41.777Z,-0.12
2023-03-12T02:03:46.013Z,-0.10
2023-03-12T02:06:00.340Z,-0.10
2023-03-12T02:08:02.101Z,-0.07
2023-03-12T02:10:05.078Z,-0.05
2023-03-12T02:12:07.695Z,-0.03
2023-03-12T02:14:09.126Z,-0.03
2023-03-12T02:16:10.550Z,-0.01
2023-03-12T02:18:16.871Z,-0.01
2023-03-12T02:20:25.463Z,0.03
2023-03-12T02:22:27.476Z,0.04
2023-03-12T02:24:52.127Z,0.08
2023-03-12T02:26:54.027Z,0.09
2023-03-12T02:28:56.841Z,0.11
2023-03-12T02:31:02.232Z,0.13
2023-03-12T02:33:07.231Z,0.14
2023-03-12T02:35:09.503Z,0.15
2023-03-12T02:37:10.888Z,0.17
2023-03-12T02:39:13.213Z,0.21
2023-03-12T02:41:20.211Z,0.23
2023-03-12T02:43:23.188Z,0.24
2023-03-12T02:45:25.839Z,0.23
2023-03-12T02:47:27.505Z,0.26
2023-03-12T02:49:32.244Z,0.28
2023-03-12T02:51:35.152Z,0.29
2023-03-12T02:53:36.728Z,0.33
2023-03-12T02:55:38.274Z,0.32
2023-03-12T02:57:40.033Z,0.34
2023-03-12T02:59:41.464Z,0.36
2023-03-12T03:01:43.038Z,0.39
2023-03-12T03:03:45.088Z,0.38
2023-03-12T03:05:46.619Z,0.39
2023-03-12T03:07:48.021Z,0.40
2023-03-12T03:09:49.438Z,0.43
2023-03-12T03:11:51.156Z,0.43
2023-03-12T03:13:53.664Z,0.45
2023-03-12T03:15:57.609Z,0.46
2023-03-12T03:17:59.308Z,0.46
2023-03-12T03:20:00.783Z,0.48
2023-03-12T03:22:02.229Z,0.51
2023-03-12T03:24:04.171Z,0.49
2023-03-12T03:26:05.609Z,0.46
2023-03-12T03:28:07.006Z,0.42
2023-03-12T03:30:09.526Z,0.35
2023-03-12T03:32:10.952Z,0.32
2023-03-12T03:34:12.724Z,0.29
2023-03-12T03:36:14.964Z,0.29
2023-03-12T03:38:16.810Z,0.31
2023-03-12T03:40:18.384Z,0.30
2023-03-12T03:42:19.800Z,0.28
2023-03-12T03:44:23.034Z,0.27
2023-03-12T03:46:25.139Z,0.27
2023-03-12T03:48:26.959Z,0.27
2023-03-12T03:50:28.479Z,0.27
2023-03-12T03:52:30.717Z,0.25
2023-03-12T03:54:33.778Z,0.24
2023-03-12T03:56:35.398Z,0.17
2023-03-12T03:58:37.116Z,0.14
2023-03-12T04:00:38.948Z,0.18
2023-03-12T04:02:40.691Z,0.15
2023-03-12T04:04:42.111Z,0.17
2023-03-12T04:06:43.859Z,0.17
2023-03-12T04:08:45.783Z,0.21
2023-03-12T04:10:47.225Z,0.23
2023-03-12T04:12:48.863Z,0.24
2023-03-12T04:14:50.257Z,0.26
2023-03-12T04:16:51.693Z,0.28
2023-03-12T04:18:53.512Z,0.31
2023-03-12T04:20:55.300Z,0.29
2023-03-12T04:22:58.365Z,0.32
2023-03-12T04:24:59.931Z,0.34
2023-03-12T04:27:01.388Z,0.42
2023-03-12T04:29:02.829Z,0.44
2023-03-12T04:31:07.148Z,0.42
2023-03-12T04:33:08.637Z,0.44
2023-03-12T04:35:10.093Z,0.45
2023-03-12T04:37:13.964Z,0.44
2023-03-12T04:39:19.644Z,0.48
2023-03-12T04:41:21.212Z,0.48
2023-03-12T04:43:22.788Z,0.48
2023-03-12T04:45:24.165Z,0.51
2023-03-12T04:47:25.668Z,0.53
2023-03-12T04:49:27.327Z,0.56
2023-03-12T04:51:29.822Z,0.55
2023-03-12T04:53:31.783Z,0.60
2023-03-12T04:55:33.264Z,0.61
2023-03-12T04:57:34.747Z,0.63
2023-03-12T04:59:36.396Z,0.63
2023-03-12T05:01:37.880Z,0.65
2023-03-12T05:03:39.302Z,0.67
2023-03-12T05:05:40.777Z,0.68
2023-03-12T05:07:42.194Z,0.68
2023-03-12T05:09:44.277Z,0.70
2023-03-12T05:11:46.011Z,0.73
2023-03-12T05:13:48.243Z,0.79
2023-03-12T05:15:50.756Z,0.81
2023-03-12T05:17:54.694Z,0.83
2023-03-12T05:19:56.235Z,0.80
2023-03-12T05:21:57.653Z,0.83
2023-03-12T05:23:59.948Z,0.87
2023-03-12T05:26:01.962Z,0.91
2023-03-12T05:28:03.433Z,0.90
2023-03-12T05:30:06.576Z,0.97
2023-03-12T05:32:08.311Z,0.94
2023-03-12T05:34:12.189Z,0.96
2023-03-12T05:36:15.141Z,0.99
2023-03-12T05:38:16.873Z,1.02
2023-03-12T05:40:18.397Z,1.05
2023-03-12T05:42:19.861Z,1.05
2023-03-12T05:44:21.331Z,1.07
2023-03-12T05:46:24.210Z,1.08
2023-03-12T05:48:25.641Z,1.10
2023-03-12T05:50:27.071Z,1.11
2023-03-12T05:52:28.491Z,1.13
2023-03-12T05:54:29.881Z,1.14
2023-03-12T05:56:32.129Z,1.18
2023-03-12T05:58:35.174Z,1.20
2023-03-12T06:00:38.077Z,1.24
2023-03-12T06:02:39.721Z,1.26
2023-03-12T06:04:41.234Z,1.28
2023-03-12T06:06:42.659Z,1.33
2023-03-12T06:08:44.310Z,1.35
2023-03-12T06:10:45.722Z,1.37
2023-03-12T06:12:47.144Z,1.41
2023-03-12T06:14:48.577Z,1.46
2023-03-12T06:16:50.125Z,1.46
2023-03-12T06:18:56.973Z,1.52
2023-03-12T06:21:11.270Z,1.54
2023-03-12T06:23:12.679Z,1.56
2023-03-12T06:25:14.501Z,1.58
2023-03-12T06:27:16.603Z,1.63
2023-03-12T06:29:18.090Z,1.63
2023-03-12T06:31:20.586Z,1.70
2023-03-12T06:33:22.376Z,1.75
2023-03-12T06:35:23.803Z,1.76
2023-03-12T06:37:25.255Z,1.80
2023-03-12T06:39:26.710Z,1.80
2023-03-12T06:41:28.240Z,1.83
2023-03-12T06:43:32.121Z,1.87
2023-03-12T06:45:33.657Z,1.92
2023-03-12T06:47:35.120Z,1.97
2023-03-12T06:49:37.411Z,2.03
2023-03-12T06:51:38.880Z,2.07
2023-03-12T06:53:42.384Z,2.04
2023-03-12T06:55:44.936Z,2.02
2023-03-12T06:57:46.370Z,2.08
2023-03-12T06:59:50.428Z,2.11
2023-03-12T07:01:52.379Z,2.16
2023-03-12T07:03:53.838Z,2.19
2023-03-12T07:05:57.778Z,2.21
2023-03-12T07:07:59.385Z,2.25
2023-03-12T07:10:00.827Z,2.26
2023-03-12T07:12:04.131Z,2.29
2023-03-12T07:14:05.619Z,2.33
2023-03-12T07:16:07.942Z,2.37
2023-03-12T07:18:11.174Z,2.41
2023-03-12T07:20:13.240Z,2.46
2023-03-12T07:22:14.654Z,2.44
2023-03-12T07:24:16.090Z,2.44
2023-03-12T07:26:18.275Z,2.50
2023-03-12T07:28:21.102Z,2.45
2023-03-12T07:30:22.548Z,2.47
2023-03-12T07:32:24.121Z,2.50
2023-03-12T07:34:25.770Z,2.47
2023-03-12T07:36:27.305Z,2.53
2023-03-12T07:38:28.973Z,2.58
2023-03-12T07:40:30.476Z,2.63
2023-03-12T07:42:31.923Z,2.58
2023-03-12T07:44:33.773Z,2.59
2023-03-12T07:46:35.219Z,2.59
2023-03-12T07:48:36.662Z,2.59
2023-03-12T07:50:38.302Z,2.58
2023-03-12T07:52:39.738Z,2.63
2023-03-12T07:54:41.225Z,2.65
2023-03-12T07:56:42.770Z,2.64
2023-03-12T07:58:44.427Z,2.71
2023-03-12T08:00:46.576Z,2.69
2023-03-12T08:02:48.246Z,2.73
2023-03-12T08:04:49.885Z,2.69
2023-03-12T08:06:51.537Z,2.71
2023-03-12T08:08:53.107Z,2.79
2023-03-12T08:10:54.909Z,2.79
2023-03-12T08:12:56.403Z,2.80
2023-03-12T08:14:57.884Z,2.78
2023-03-12T08:16:59.962Z,2.80
2023-03-12T08:19:01.372Z,2.80
2023-03-12T08:21:03.302Z,2.76
2023-03-12T08:23:04.719Z,2.78
2023-03-12T08:25:06.928Z,2.76
2023-03-12T08:27:09.136Z,2.81
2023-03-12T08:29:10.904Z,2.84
2023-03-12T08:31:12.412Z,2.86
2023-03-12T08:33:14.070Z,2.89
2023-03-12T08:35:15.747Z,3.00
2023-03-12T08:37:17.738Z,3.02
2023-03-12T08:39:19.171Z,3.06
2023-03-12T08:41:20.564Z,3.01
2023-03-12T08:43:22.052Z,3.06
2023-03-12T08:45:23.612Z,3.06
2023-03-12T08:47:25.113Z,3.07
2023-03-12T08:49:26.629Z,3.14
2023-03-12T08:51:28.042Z,3.22
2023-03-12T08:53:31.564Z,3.28
2023-03-12T08:55:32.940Z,3.34
2023-03-12T08:57:34.407Z,3.36
2023-03-12T08:59:36.266Z,3.41
2023-03-12T09:01:38.461Z,3.50
2023-03-12T09:03:41.144Z,3.47
2023-03-12T09:05:43.504Z,3.45
2023-03-12T09:07:44.999Z,3.62
2023-03-12T09:09:46.406Z,3.64
2023-03-12T09:11:48.055Z,3.59
2023-03-12T09:16:10.965Z,3.74
2023-03-12T09:18:12.394Z,3.74
2023-03-12T09:20:14.463Z,3.77
2023-03-12T09:22:15.962Z,3.88
2023-03-12T09:24:17.637Z,4.01
2023-03-12T09:26:19.091Z,4.21
2023-03-12T09:28:21.166Z,4.28
2023-03-12T09:30:25.138Z,4.11
2023-03-12T09:32:27.513Z,4.14
2023-03-12T09:34:29.034Z,4.18
2023-03-12T09:36:30.492Z,4.33
2023-03-12T09:38:32.282Z,4.36
2023-03-12T09:40:37.352Z,4.36
2023-03-12T09:42:47.528Z,4.46
2023-03-12T09:44:52.413Z,4.45
2023-03-12T09:46:57.949Z,4.44
2023-03-12T09:49:05.515Z,4.43
2023-03-12T09:51:49.293Z,4.52
2023-03-12T09:53:57.977Z,4.55
2023-03-12T09:56:09.102Z,4.64
2023-03-12T09:58:27.214Z,4.72
2023-03-12T10:00:34.752Z,4.76
2023-03-12T10:03:06.570Z,4.84
2023-03-12T10:05:20.392Z,4.85
2023-03-12T10:07:32.879Z,4.88
2023-03-12T10:09:37.094Z,4.79
2023-03-12T10:12:06.535Z,4.91
2023-03-12T10:14:42.721Z,5.04
2023-03-12T10:16:52.757Z,5.10
2023-03-12T10:19:12.583Z,5.19
2023-03-12T10:21:32.679Z,5.31
2023-03-12T10:23:58.654Z,5.24
2023-03-12T10:26:07.420Z,5.27
2023-03-12T10:28:25.729Z,5.25
2023-03-12T10:30:30.301Z,5.17
2023-03-12T10:32:42.728Z,5.16
2023-03-12T10:34:49.226Z,5.20
2023-03-12T10:36:51.012Z,5.25
2023-03-12T10:38:52.429Z,5.34
2023-03-12T10:40:53.861Z,5.39
2023-03-12T10:42:55.910Z,5.45
2023-03-12T10:45:10.955Z,5.49
2023-03-12T10:47:38.474Z,5.51
2023-03-12T10:49:40.067Z,5.63
2023-03-12T10:51:59.943Z,5.52
2023-03-12T10:54:22.431Z,5.45
2023-03-12T10:56:23.931Z,5.52
2023-03-12T10:58:26.137Z,5.51
2023-03-12T11:00:31.087Z,5.58
2023-03-12T11:02:41.442Z,5.57
2023-03-12T11:04:51.407Z,5.60
2023-03-12T11:07:14.466Z,5.57
2023-03-12T11:09:20.760Z,5.69
2023-03-12T11:11:32.743Z,5.74
2023-03-12T11:13:36.774Z,5.79
2023-03-12T11:15:41.889Z,5.73
2023-03-12T11:17:43.331Z,5.94
2023-03-12T11:19:44.753Z,5.99
2023-03-12T11:21:58.424Z,6.05
2023-03-12T11:23:59.874Z,6.04
2023-03-12T11:26:15.947Z,6.05
2023-03-12T11:28:23.544Z,6.07
2023-03-12T11:30:39.090Z,5.97
2023-03-12T11:32:50.968Z,6.02
2023-03-12T11:34:53.060Z,6.05
2023-03-12T11:37:19.296Z,6.04
2023-03-12T11:39:32.712Z,6.04
2023-03-12T11:41:33.977Z,6.05
2023-03-12T11:44:05.123Z,5.98
2023-03-12T11:46:16.761Z,6.09
2023-03-12T11:48:26.041Z,6.19
2023-03-12T11:50:33.512Z,6.18
2023-03-12T11:53:05.954Z,6.21
2023-03-12T11:55:23.422Z,6.21
2023-03-12T11:57:38.097Z,6.23
2023-03-12T11:59:51.722Z,6.27
2023-03-12T12:02:32.764Z,6.43
2023-03-12T12:04:46.257Z,6.45
2023-03-12T12:07:06.672Z,6.49
2023-03-12T12:09:32.294Z,6.52
2023-03-12T12:11:56.341Z,6.51
2023-03-12T12:14:06.724Z,6.61
2023-03-12T12:16:22.816Z,6.57
2023-03-12T12:19:09.624Z,6.57
2023-03-12T12:21:39.799Z,6.65
2023-03-12T12:23:49.533Z,6.68
2023-03-12T12:25:57.605Z,6.70
2023-03-12T12:28:17.675Z,6.69
2023-03-12T12:30:40.343Z,6.66
2023-03-12T12:32:57.069Z,6.83
2023-03-12T12:35:21.570Z,6.98
2023-03-12T12:37:47.585Z,7.03
2023-03-12T12:39:58.303Z,7.10
2023-03-12T12:42:05.951Z,7.11
2023-03-12T12:44:15.309Z,7.11
2023-03-12T12:46:28.175Z,7.14
2023-03-12T12:48:33.770Z,7.20
2023-03-12T12:50:38.341Z,7.15
2023-03-12T12:52:41.186Z,7.19
2023-03-12T12:54:51.783Z,7.24
2023-03-12T12:56:59.180Z,7.25
2023-03-12T12:59:40.812Z,7.33
2023-03-12T13:01:43.337Z,7.36
2023-03-12T13:03:46.924Z,7.44
2023-03-12T13:06:04.937Z,7.41
2023-03-12T13:08:08.737Z,7.40
2023-03-12T13:10:33.227Z,7.41
2023-03-12T13:12:56.283Z,7.41
2023-03-12T13:14:59.040Z,7.42
2023-03-12T13:17:28.734Z,7.50
2023-03-12T13:19:30.191Z,7.47
2023-03-12T13:21:41.815Z,7.58
2023-03-12T13:23:58.698Z,7.61
2023-03-12T13:26:16.826Z,7.67
2023-03-12T13:29:12.998Z,7.81
2023-03-12T13:31:29.487Z,7.89
2023-03-12T13:33:45.291Z,8.06
2023-03-12T13:36:24.031Z,8.12
2023-03-12T13:38:51.730Z,8.25
2023-03-12T13:41:00.852Z,8.47
2023-03-12T13:43:08.445Z,8.65
2023-03-12T13:45:31.810Z,8.81
2023-03-12T13:47:42.435Z,8.73
2023-03-12T13:49:47.368Z,8.84
2023-03-12T13:51:59.902Z,8.93
2023-03-12T13:54:03.780Z,9.04
2023-03-12T13:56:13.165Z,9.18
2023-03-12T13:58:23.224Z,9.45
2023-03-12T14:00:38.268Z,9.53
2023-03-12T14:02:48.324Z,9.44
2023-03-12T14:04:49.895Z,9.40
2023-03-12T14:07:07.512Z,9.52
2023-03-12T14:09:28.333Z,9.53
2023-03-12T14:11:51.187Z,9.52
2023-03-12T14:14:10.899Z,9.48
2023-03-12T14:16:18.353Z,9.37
2023-03-12T14:18:29.565Z,9.33
2023-03-12T14:20:31.399Z,9.29
2023-03-12T14:22:36.104Z,9.37
2023-03-12T14:24:42.230Z,9.42
2023-03-12T14:26:46.411Z,9.52
2023-03-12T14:28:54.514Z,9.58
2023-03-12T14:31:01.107Z,9.58
2023-03-12T14:33:03.845Z,9.47
2023-03-12T14:35:19.465Z,9.46
2023-03-12T14:37:36.125Z,9.37
2023-03-12T14:39:50.812Z,9.34
2023-03-12T14:42:00.289Z,9.33
2023-03-12T14:44:23.736Z,9.40
2023-03-12T14:46:25.274Z,9.41
2023-03-12T14:48:32.989Z,9.45
2023-03-12T14:50:39.814Z,9.52
2023-03-12T14:52:41.240Z,9.63
2023-03-12T14:54:54.123Z,9.74
2023-03-12T14:56:55.593Z,9.70
2023-03-12T14:58:59.131Z,9.64
2023-03-12T15:01:04.861Z,9.64
2023-03-12T15:03:15.195Z,9.64
2023-03-12T15:05:19.211Z,9.70
2023-03-12T15:07:35.106Z,9.74
2023-03-12T15:09:36.943Z,9.80
2023-03-12T15:11:39.515Z,9.89
2023-03-12T15:13:41.187Z,9.80
2023-03-12T15:15:46.687Z,9.80
2023-03-12T15:17:48.339Z,9.76
2023-03-12T15:19:50.384Z,9.77
2023-03-12T15:21:52.278Z,9.75
2023-03-12T15:23:54.137Z,9.76
2023-03-12T15:26:18.307Z,9.73
2023-03-12T15:28:21.209Z,9.74
2023-03-12T15:30:25.754Z,9.79
2023-03-12T15:32:27.991Z,9.77
2023-03-12T15:34:35.273Z,9.81
2023-03-12T15:36:46.720Z,9.83
2023-03-12T15:39:21.634Z,9.80
2023-03-12T15:41:27.524Z,9.77
2023-03-12T15:43:30.634Z,9.72
2023-03-12T15:45:38.630Z,9.73
2023-03-12T15:47:40.531Z,9.72
2023-03-12T15:49:42.659Z,9.72
2023-03-12T15:52:02.035Z,9.71
2023-03-12T15:54:06.852Z,9.78
2023-03-12T15:56:11.349Z,9.78
2023-03-12T15:58:44.484Z,9.85
2023-03-12T16:00:45.995Z,9.84
2023-03-12T16:03:03.883Z,9.82
2023-03-12T16:05:08.004Z,9.78
2023-03-12T16:07:12.014Z,9.78
2023-03-12T16:09:18.440Z,9.78
2023-03-12T16:11:23.225Z,9.74
2023-03-12T16:13:31.062Z,9.74
2023-03-12T16:15:41.767Z,9.70
2023-03-12T16:17:43.489Z,9.73
2023-03-12T16:19:45.146Z,9.73
2023-03-12T16:21:47.128Z,9.70
2023-03-12T16:23:48.537Z,9.72
2023-03-12T16:25:55.666Z,9.66
2023-03-12T16:28:00.335Z,9.64
2023-03-12T16:30:01.829Z,9.64
2023-03-12T16:32:12.089Z,9.67
2023-03-12T16:34:13.592Z,9.71
2023-03-12T16:36:16.881Z,9.77
2023-03-12T16:38:18.311Z,9.76
2023-03-12T16:40:32.588Z,9.76
2023-03-12T16:42:35.703Z,9.69
2023-03-12T16:44:37.110Z,9.71
2023-03-12T16:46:38.625Z,9.72
2023-03-12T16:48:40.136Z,9.81
2023-03-12T16:50:45.971Z,9.80
2023-03-12T16:52:50.926Z,9.85
2023-03-12T16:54:53.540Z,9.81
2023-03-12T16:56:55.813Z,9.82
2023-03-12T16:58:58.979Z,9.79
2023-03-12T17:01:00.486Z,9.84
2023-03-12T17:03:02.345Z,9.85
2023-03-12T17:05:04.005Z,9.79
2023-03-12T17:07:05.424Z,9.77
2023-03-12T17:09:08.381Z,9.73
2023-03-12T17:11:14.500Z,9.72
2023-03-12T17:13:25.539Z,9.72
2023-03-12T17:15:30.663Z,9.77
2023-03-12T17:17:32.135Z,9.78
2023-03-12T17:19:33.560Z,9.91
2023-03-12T17:21:35.032Z,9.74
2023-03-12T17:23:36.489Z,9.71
2023-03-12T17:25:40.889Z,9.61
2023-03-12T17:27:42.297Z,9.58
2023-03-12T17:29:43.762Z,9.53
2023-03-12T17:31:45.202Z,9.45
2023-03-12T17:33:46.687Z,9.45
2023-03-12T17:35:57.783Z,9.30
2023-03-12T17:37:59.758Z,9.30
2023-03-12T17:40:05.684Z,9.37
2023-03-12T17:42:07.229Z,9.31
2023-03-12T17:44:08.746Z,9.28
2023-03-12T17:46:10.511Z,9.27
2023-03-12T17:48:12.254Z,9.23
2023-03-12T17:50:14.571Z,9.23
2023-03-12T17:52:16.013Z,9.22
2023-03-12T17:54:17.454Z,9.15
2023-03-12T17:56:18.860Z,9.19
2023-03-12T17:58:20.295Z,9.17
2023-03-12T18:00:23.040Z,9.16
2023-03-12T18:02:25.276Z,9.12
2023-03-12T18:04:26.769Z,9.15
2023-03-12T18:06:28.205Z,9.15
2023-03-12T18:08:29.640Z,9.13
2023-03-12T18:10:32.874Z,9.11
2023-03-12T18:12:34.870Z,9.16
2023-03-12T18:14:36.435Z,9.11
2023-03-12T18:16:37.978Z,9.08
2023-03-12T18:18:39.373Z,9.08
2023-03-12T18:20:40.843Z,9.11
2023-03-12T18:22:43.317Z,9.06
2023-03-12T18:24:44.742Z,8.98
2023-03-12T18:26:46.448Z,8.99
2023-03-12T18:28:48.760Z,9.01
2023-03-12T18:30:50.421Z,9.00
2023-03-12T18:32:52.011Z,8.94
2023-03-12T18:34:53.525Z,8.96
2023-03-12T18:36:54.979Z,8.93
2023-03-12T18:38:56.546Z,8.89
2023-03-12T18:41:08.959Z,8.84
2023-03-12T18:43:10.489Z,8.93
2023-03-12T18:45:12.668Z,8.84
2023-03-12T18:47:14.098Z,8.88
2023-03-12T18:49:15.511Z,8.88
2023-03-12T18:51:17.311Z,8.88
2023-03-12T18:53:18.805Z,8.90
2023-03-12T18:55:20.221Z,8.90
2023-03-12T18:57:21.633Z,8.85
2023-03-12T18:59:23.318Z,8.86
2023-03-12T19:01:26.022Z,8.89
2023-03-12T19:03:27.690Z,8.82
2023-03-12T19:05:29.138Z,8.83
2023-03-12T19:07:31.787Z,8.84
2023-03-12T19:09:33.384Z,8.90
2023-03-12T19:11:34.834Z,8.93
2023-03-12T19:13:36.364Z,8.94
2023-03-12T19:15:39.163Z,8.96
2023-03-12T19:17:40.674Z,8.90
2023-03-12T19:19:42.153Z,8.89
2023-03-12T19:21:43.551Z,8.85
2023-03-12T19:23:45.219Z,8.90
2023-03-12T19:25:46.965Z,8.98
2023-03-12T19:27:48.471Z,8.94
2023-03-12T19:29:49.894Z,8.97
2023-03-12T19:31:51.463Z,8.93
2023-03-12T19:33:52.986Z,8.90
2023-03-12T19:35:54.842Z,8.90
2023-03-12T19:37:58.325Z,8.87
2023-03-12T19:39:59.742Z,8.88
2023-03-12T19:42:01.312Z,8.87
2023-03-12T19:44:02.796Z,8.96
2023-03-12T19:46:05.146Z,8.89
2023-03-12T19:48:07.018Z,8.88
2023-03-12T19:50:10.385Z,8.88
2023-03-12T19:52:11.775Z,8.81
2023-03-12T19:54:13.238Z,8.85
2023-03-12T19:56:17.515Z,8.85
2023-03-12T19:58:19.126Z,8.90
2023-03-12T20:00:20.906Z,8.88
2023-03-12T20:02:22.430Z,8.92
2023-03-12T20:04:23.973Z,8.95
2023-03-12T20:06:25.389Z,8.97
2023-03-12T20:08:32.933Z,8.97
2023-03-12T20:10:35.671Z,9.00
2023-03-12T20:12:38.454Z,9.00
2023-03-12T20:14:42.348Z,9.01
2023-03-12T20:16:44.162Z,9.05
2023-03-12T20:18:45.635Z,9.04
2023-03-12T20:20:47.076Z,9.03
2023-03-12T20:22:48.499Z,8.99
2023-03-12T20:24:49.997Z,9.05
2023-03-12T20:26:51.478Z,9.05
2023-03-12T20:28:52.893Z,9.02
2023-03-12T20:30:54.364Z,9.01
2023-03-12T20:32:55.911Z,9.03
2023-03-12T20:34:57.531Z,9.03
2023-03-12T20:36:59.188Z,9.03
2023-03-12T20:39:00.685Z,9.04
2023-03-12T20:41:02.319Z,9.04
2023-03-12T20:43:04.819Z,9.03
2023-03-12T20:45:07.072Z,9.02
2023-03-12T20:47:08.493Z,8.96
2023-03-12T20:49:09.958Z,9.08
2023-03-12T20:51:11.452Z,9.06
2023-03-12T20:53:12.899Z,9.02
2023-03-12T20:55:14.351Z,9.05
2023-03-12T20:57:15.770Z,9.01
2023-03-12T20:59:17.280Z,9.02
2023-03-12T21:01:18.791Z,9.03
2023-03-12T21:03:20.347Z,9.00
2023-03-12T21:05:24.593Z,9.04
2023-03-12T21:07:26.393Z,9.01
2023-03-12T21:09:27.918Z,9.07
2023-03-12T21:11:31.212Z,9.04
2023-03-12T21:13:32.703Z,9.03
2023-03-12T21:15:34.255Z,8.99
2023-03-12T21:17:37.956Z,8.96
2023-03-12T21:19:41.557Z,8.96
2023-03-12T21:21:43.042Z,8.94
2023-03-12T21:23:44.633Z,8.96
2023-03-12T21:25:46.141Z,8.94
2023-03-12T21:27:51.105Z,8.97
2023-03-12T21:29:53.868Z,8.93
2023-03-12T21:31:55.382Z,9.00
2023-03-12T21:33:57.894Z,8.99
2023-03-12T21:35:59.552Z,8.99
2023-03-12T21:38:02.469Z,8.98
2023-03-12T21:40:04.895Z,9.02
2023-03-12T21:42:06.395Z,8.97
2023-03-12T21:44:07.794Z,9.01
2023-03-12T21:46:19.137Z,8.99
2023-03-12T21:48:20.614Z,9.00
2023-03-12T21:50:22.653Z,8.96
2023-03-12T21:52:24.154Z,8.89
2023-03-12T21:54:26.828Z,8.92
2023-03-12T21:56:30.172Z,8.90
2023-03-12T21:58:33.040Z,8.83
2023-03-12T22:00:34.438Z,8.84
2023-03-12T22:02:35.872Z,8.82
2023-03-12T22:04:37.371Z,8.82
2023-03-12T22:06:38.811Z,8.85
2023-03-12T22:08:41.270Z,8.82
2023-03-12T22:10:45.105Z,8.86
2023-03-12T22:12:46.662Z,8.88
2023-03-12T22:14:48.123Z,8.83
2023-03-12T22:16:49.941Z,8.85
2023-03-12T22:18:51.402Z,8.84
2023-03-12T22:20:59.618Z,8.86
2023-03-12T22:23:01.163Z,8.88
2023-03-12T22:25:02.608Z,8.84
2023-03-12T22:27:07.252Z,8.80
2023-03-12T22:29:09.165Z,8.79
2023-03-12T22:31:10.673Z,8.76
2023-03-12T22:33:12.566Z,8.75
2023-03-12T22:35:14.090Z,8.76
2023-03-12T22:37:15.863Z,8.76
2023-03-12T22:39:17.524Z,8.76
2023-03-12T22:41:27.494Z,8.77
2023-03-12T22:43:28.950Z,8.81
2023-03-12T22:45:30.384Z,8.79
2023-03-12T22:47:31.779Z,8.81
2023-03-12T22:49:33.326Z,8.79
2023-03-12T22:51:35.104Z,8.80
2023-03-12T22:53:36.874Z,8.77
2023-03-12T22:55:38.299Z,8.75
2023-03-12T22:57:39.824Z,8.81
2023-03-12T22:59:41.243Z,8.82
2023-03-12T23:01:42.743Z,8.85
2023-03-12T23:03:45.581Z,8.83
2023-03-12T23:05:46.981Z,8.81
2023-03-12T23:07:48.648Z,8.80
2023-03-12T23:09:50.091Z,8.81
2023-03-12T23:11:51.510Z,8.85
2023-03-12T23:13:53.752Z,8.81
2023-03-12T23:15:55.652Z,8.87
2023-03-12T23:17:57.072Z,8.81
2023-03-12T23:19:58.485Z,8.79
2023-03-12T23:21:59.920Z,8.79
2023-03-12T23:24:01.403Z,8.82
2023-03-12T23:26:03.406Z,8.81
2023-03-12T23:28:04.935Z,8.87
2023-03-12T23:30:07.096Z,8.82
2023-03-12T23:32:08.557Z,8.86
2023-03-12T23:34:10.104Z,8.87
2023-03-12T23:36:16.890Z,8.80
2023-03-12T23:38:18.327Z,8.84
2023-03-12T23:40:19.720Z,8.82
2023-03-12T23:42:21.266Z,8.85
2023-03-12T23:44:22.687Z,8.83
2023-03-12T23:46:24.618Z,8.87
2023-03-12T23:48:30.143Z,8.85
2023-03-12T23:50:35.227Z,8.88
2023-03-12T23:52:36.712Z,8.92
2023-03-12T23:54:38.198Z,8.86
2023-03-12T23:56:40.869Z,8.90
2023-03-12T23:58:43.553Z,8.85
